sensor_id;sensor_type;location;lat;lon;timestamp;temperature;humidity
2463;DHT22;1243;54.298;10.172;2023-05-18T00:02:15;7.70;99.90
2463;DHT22;1243;54.298;10.172;2023-05-18T00:04:41;7.60;99.90
2463;DHT22;1243;54.298;10.172;2023-05-18T00:07:07;7.60;99.90
2463;DHT22;1243;54.298;10.172;2023-05-18T00:09:34;7.60;99.90
2463;DHT22;1243;54.298;10.172;2023-05-18T00:12:02;7.60;99.90
2463;DHT22;1243;54.298;10.172;2023-05-18T00:14:28;7.60;99.90
2463;DHT22;1243;54.298;10.172;2023-05-18T00:16:54;7.60;99.90
2463;DHT22;1243;54.298;10.172;2023-05-18T00:19:21;7.70;99.90
2463;DHT22;1243;54.298;10.172;2023-05-18T00:21:49;7.60;99.90
2463;DHT22;1243;54.298;10.172;2023-05-18T00:24:16;7.50;99.90
2463;DHT22;1243;54.298;10.172;2023-05-18T00:26:44;7.50;99.90
2463;DHT22;1243;54.298;10.172;2023-05-18T00:29:10;7.50;99.90
2463;DHT22;1243;54.298;10.172;2023-05-18T00:31:37;7.50;99.90
2463;DHT22;1243;54.298;10.172;2023-05-18T00:34:11;7.50;99.90
2463;DHT22;1243;54.298;10.172;2023-05-18T00:36:38;7.50;99.90
2463;DHT22;1243;54.298;10.172;2023-05-18T00:39:06;7.50;99.90
2463;DHT22;1243;54.298;10.172;2023-05-18T00:41:32;7.40;99.90
2463;DHT22;1243;54.298;10.172;2023-05-18T00:43:58;7.40;99.90
2463;DHT22;1243;54.298;10.172;2023-05-18T00:46:26;7.30;99.90
2463;DHT22;1243;54.298;10.172;2023-05-18T00:48:53;7.20;99.90
2463;DHT22;1243;54.298;10.172;2023-05-18T00:51:20;7.10;99.90
2463;DHT22;1243;54.298;10.172;2023-05-18T00:53:54;7.00;99.90
2463;DHT22;1243;54.298;10.172;2023-05-18T00:56:21;6.90;99.90
2463;DHT22;1243;54.298;10.172;2023-05-18T00:58:54;6.90;99.90
2463;DHT22;1243;54.298;10.172;2023-05-18T01:01:32;6.90;99.90
2463;DHT22;1243;54.298;10.172;2023-05-18T01:04:02;6.90;99.90
2463;DHT22;1243;54.298;10.172;2023-05-18T01:06:31;6.90;99.90
2463;DHT22;1243;54.298;10.172;2023-05-18T01:09:01;6.90;99.90
2463;DHT22;1243;54.298;10.172;2023-05-18T01:17:43;7.00;99.90
2463;DHT22;1243;54.298;10.172;2023-05-18T01:28:14;7.00;99.90
2463;DHT22;1243;54.298;10.172;2023-05-18T01:30:42;7.00;99.90
2463;DHT22;1243;54.298;10.172;2023-05-18T01:33:12;7.00;99.90
2463;DHT22;1243;54.298;10.172;2023-05-18T01:35:39;6.90;99.90
2463;DHT22;1243;54.298;10.172;2023-05-18T01:38:17;6.90;99.90
2463;DHT22;1243;54.298;10.172;2023-05-18T01:43:32;6.90;99.90
2463;DHT22;1243;54.298;10.172;2023-05-18T01:46:06;6.90;99.90
2463;DHT22;1243;54.298;10.172;2023-05-18T01:48:37;6.90;99.90
2463;DHT22;1243;54.298;10.172;2023-05-18T01:51:04;6.90;99.90
2463;DHT22;1243;54.298;10.172;2023-05-18T01:53:37;6.90;99.90
2463;DHT22;1243;54.298;10.172;2023-05-18T01:56:07;7.00;99.90
2463;DHT22;1243;54.298;10.172;2023-05-18T01:58:34;7.00;99.90
2463;DHT22;1243;54.298;10.172;2023-05-18T02:01:00;7.00;99.90
2463;DHT22;1243;54.298;10.172;2023-05-18T02:03:25;7.00;99.90
2463;DHT22;1243;54.298;10.172;2023-05-18T02:05:51;7.00;99.90
2463;DHT22;1243;54.298;10.172;2023-05-18T02:08:17;7.00;99.90
2463;DHT22;1243;54.298;10.172;2023-05-18T02:10:42;7.00;99.90
2463;DHT22;1243;54.298;10.172;2023-05-18T02:13:08;6.90;99.90
2463;DHT22;1243;54.298;10.172;2023-05-18T02:15:33;6.90;99.90
2463;DHT22;1243;54.298;10.172;2023-05-18T02:17:59;6.90;99.90
2463;DHT22;1243;54.298;10.172;2023-05-18T02:20:25;6.90;99.90
2463;DHT22;1243;54.298;10.172;2023-05-18T02:22:51;6.90;99.90
2463;DHT22;1243;54.298;10.172;2023-05-18T02:25:16;6.90;99.90
2463;DHT22;1243;54.298;10.172;2023-05-18T02:27:43;6.90;99.90
2463;DHT22;1243;54.298;10.172;2023-05-18T02:30:09;6.90;99.90
2463;DHT22;1243;54.298;10.172;2023-05-18T02:32:35;6.80;99.90
2463;DHT22;1243;54.298;10.172;2023-05-18T02:35:07;6.80;99.90
2463;DHT22;1243;54.298;10.172;2023-05-18T02:37:33;6.70;99.90
2463;DHT22;1243;54.298;10.172;2023-05-18T02:40:05;6.70;99.90
2463;DHT22;1243;54.298;10.172;2023-05-18T02:42:31;6.60;99.90
2463;DHT22;1243;54.298;10.172;2023-05-18T02:44:56;6.60;99.90
2463;DHT22;1243;54.298;10.172;2023-05-18T02:47:22;6.50;99.90
2463;DHT22;1243;54.298;10.172;2023-05-18T02:49:47;6.50;99.90
2463;DHT22;1243;54.298;10.172;2023-05-18T02:52:13;6.50;99.90
2463;DHT22;1243;54.298;10.172;2023-05-18T02:54:41;6.40;99.90
2463;DHT22;1243;54.298;10.172;2023-05-18T02:57:06;6.40;99.90
2463;DHT22;1243;54.298;10.172;2023-05-18T02:59:32;6.30;99.90
2463;DHT22;1243;54.298;10.172;2023-05-18T03:01:58;6.30;99.90
2463;DHT22;1243;54.298;10.172;2023-05-18T03:04:23;6.30;99.90
2463;DHT22;1243;54.298;10.172;2023-05-18T03:06:50;6.30;99.90
2463;DHT22;1243;54.298;10.172;2023-05-18T03:09:17;6.30;99.90
2463;DHT22;1243;54.298;10.172;2023-05-18T03:11:43;6.30;99.90
2463;DHT22;1243;54.298;10.172;2023-05-18T03:14:09;6.30;99.90
2463;DHT22;1243;54.298;10.172;2023-05-18T03:16:35;6.40;99.90
2463;DHT22;1243;54.298;10.172;2023-05-18T03:19:03;6.40;99.90
2463;DHT22;1243;54.298;10.172;2023-05-18T03:21:29;6.40;99.90
2463;DHT22;1243;54.298;10.172;2023-05-18T03:23:58;6.20;99.90
2463;DHT22;1243;54.298;10.172;2023-05-18T03:26:24;6.20;99.90
2463;DHT22;1243;54.298;10.172;2023-05-18T03:28:50;6.20;99.90
2463;DHT22;1243;54.298;10.172;2023-05-18T03:31:16;6.30;99.90
2463;DHT22;1243;54.298;10.172;2023-05-18T03:33:42;6.40;99.90
2463;DHT22;1243;54.298;10.172;2023-05-18T03:36:08;6.40;99.90
2463;DHT22;1243;54.298;10.172;2023-05-18T03:38:33;6.30;99.90
2463;DHT22;1243;54.298;10.172;2023-05-18T03:40:59;6.20;99.90
2463;DHT22;1243;54.298;10.172;2023-05-18T03:43:25;6.20;99.90
2463;DHT22;1243;54.298;10.172;2023-05-18T03:45:51;6.30;99.90
2463;DHT22;1243;54.298;10.172;2023-05-18T03:48:17;6.30;99.90
2463;DHT22;1243;54.298;10.172;2023-05-18T03:50:43;6.40;99.90
2463;DHT22;1243;54.298;10.172;2023-05-18T03:53:09;6.50;99.90
2463;DHT22;1243;54.298;10.172;2023-05-18T03:55:34;6.60;99.90
2463;DHT22;1243;54.298;10.172;2023-05-18T03:58:00;6.60;99.90
2463;DHT22;1243;54.298;10.172;2023-05-18T04:00:27;6.70;99.90
2463;DHT22;1243;54.298;10.172;2023-05-18T04:02:53;6.70;99.90
2463;DHT22;1243;54.298;10.172;2023-05-18T04:05:19;6.70;99.90
2463;DHT22;1243;54.298;10.172;2023-05-18T04:07:45;6.60;99.90
2463;DHT22;1243;54.298;10.172;2023-05-18T04:10:12;6.70;99.90
2463;DHT22;1243;54.298;10.172;2023-05-18T04:12:38;6.70;99.90
2463;DHT22;1243;54.298;10.172;2023-05-18T04:15:05;6.80;99.90
2463;DHT22;1243;54.298;10.172;2023-05-18T04:17:31;6.90;99.90
2463;DHT22;1243;54.298;10.172;2023-05-18T04:19:58;7.00;99.90
2463;DHT22;1243;54.298;10.172;2023-05-18T04:22:24;7.00;99.90
2463;DHT22;1243;54.298;10.172;2023-05-18T04:24:54;7.10;99.90
2463;DHT22;1243;54.298;10.172;2023-05-18T04:27:21;7.20;99.90
2463;DHT22;1243;54.298;10.172;2023-05-18T04:29:47;7.20;99.90
2463;DHT22;1243;54.298;10.172;2023-05-18T04:32:16;7.30;99.90
2463;DHT22;1243;54.298;10.172;2023-05-18T04:34:42;7.40;99.90
2463;DHT22;1243;54.298;10.172;2023-05-18T04:37:08;7.40;99.90
2463;DHT22;1243;54.298;10.172;2023-05-18T04:39:34;7.40;99.90
2463;DHT22;1243;54.298;10.172;2023-05-18T04:42:04;7.50;99.90
2463;DHT22;1243;54.298;10.172;2023-05-18T04:44:30;7.60;99.90
2463;DHT22;1243;54.298;10.172;2023-05-18T04:46:59;7.60;99.90
2463;DHT22;1243;54.298;10.172;2023-05-18T04:49:24;7.70;99.90
2463;DHT22;1243;54.298;10.172;2023-05-18T04:51:53;7.80;99.90
2463;DHT22;1243;54.298;10.172;2023-05-18T04:54:23;7.90;99.90
2463;DHT22;1243;54.298;10.172;2023-05-18T04:56:49;8.00;99.90
2463;DHT22;1243;54.298;10.172;2023-05-18T04:59:15;8.00;99.90
2463;DHT22;1243;54.298;10.172;2023-05-18T05:01:41;8.10;99.90
2463;DHT22;1243;54.298;10.172;2023-05-18T05:04:06;8.20;99.90
2463;DHT22;1243;54.298;10.172;2023-05-18T05:06:32;8.20;99.90
2463;DHT22;1243;54.298;10.172;2023-05-18T05:08:58;8.30;99.90
2463;DHT22;1243;54.298;10.172;2023-05-18T05:11:23;8.40;99.90
2463;DHT22;1243;54.298;10.172;2023-05-18T05:13:49;8.40;99.90
2463;DHT22;1243;54.298;10.172;2023-05-18T05:16:15;8.50;99.90
2463;DHT22;1243;54.298;10.172;2023-05-18T05:18:40;8.50;99.90
2463;DHT22;1243;54.298;10.172;2023-05-18T05:21:07;8.50;99.90
2463;DHT22;1243;54.298;10.172;2023-05-18T05:23:33;8.60;99.90
2463;DHT22;1243;54.298;10.172;2023-05-18T05:25:58;8.60;99.90
2463;DHT22;1243;54.298;10.172;2023-05-18T05:28:24;8.60;99.90
2463;DHT22;1243;54.298;10.172;2023-05-18T05:30:50;8.70;99.90
2463;DHT22;1243;54.298;10.172;2023-05-18T05:33:16;8.80;99.90
2463;DHT22;1243;54.298;10.172;2023-05-18T05:35:42;8.90;99.90
2463;DHT22;1243;54.298;10.172;2023-05-18T05:38:08;8.90;99.90
2463;DHT22;1243;54.298;10.172;2023-05-18T05:40:33;9.00;99.90
2463;DHT22;1243;54.298;10.172;2023-05-18T05:42:59;9.00;99.90
2463;DHT22;1243;54.298;10.172;2023-05-18T05:45:25;9.00;99.90
2463;DHT22;1243;54.298;10.172;2023-05-18T05:47:53;9.00;99.90
2463;DHT22;1243;54.298;10.172;2023-05-18T05:50:18;9.00;99.90
2463;DHT22;1243;54.298;10.172;2023-05-18T05:52:44;9.00;99.90
2463;DHT22;1243;54.298;10.172;2023-05-18T05:55:10;9.10;99.90
2463;DHT22;1243;54.298;10.172;2023-05-18T05:57:35;9.30;99.90
2463;DHT22;1243;54.298;10.172;2023-05-18T06:00:01;9.40;99.90
2463;DHT22;1243;54.298;10.172;2023-05-18T06:02:29;9.40;99.90
2463;DHT22;1243;54.298;10.172;2023-05-18T06:04:55;9.40;99.90
2463;DHT22;1243;54.298;10.172;2023-05-18T06:07:20;9.40;99.90
2463;DHT22;1243;54.298;10.172;2023-05-18T06:09:46;9.30;99.90
2463;DHT22;1243;54.298;10.172;2023-05-18T06:12:12;9.30;99.90
2463;DHT22;1243;54.298;10.172;2023-05-18T06:14:37;9.40;99.90
2463;DHT22;1243;54.298;10.172;2023-05-18T06:17:03;9.40;99.90
2463;DHT22;1243;54.298;10.172;2023-05-18T06:19:29;9.50;99.90
2463;DHT22;1243;54.298;10.172;2023-05-18T06:21:55;9.60;99.90
2463;DHT22;1243;54.298;10.172;2023-05-18T06:24:20;9.60;99.90
2463;DHT22;1243;54.298;10.172;2023-05-18T06:26:46;9.50;99.90
2463;DHT22;1243;54.298;10.172;2023-05-18T06:29:12;9.60;99.90
2463;DHT22;1243;54.298;10.172;2023-05-18T06:31:38;9.60;99.90
2463;DHT22;1243;54.298;10.172;2023-05-18T06:34:06;9.60;99.90
2463;DHT22;1243;54.298;10.172;2023-05-18T06:36:32;9.70;99.90
2463;DHT22;1243;54.298;10.172;2023-05-18T06:38:58;9.80;99.90
2463;DHT22;1243;54.298;10.172;2023-05-18T06:41:24;9.90;99.90
2463;DHT22;1243;54.298;10.172;2023-05-18T06:43:50;9.70;99.90
2463;DHT22;1243;54.298;10.172;2023-05-18T06:46:20;9.80;99.90
2463;DHT22;1243;54.298;10.172;2023-05-18T06:48:46;9.90;99.90
2463;DHT22;1243;54.298;10.172;2023-05-18T06:51:11;10.00;99.90
2463;DHT22;1243;54.298;10.172;2023-05-18T06:53:37;10.10;99.90
2463;DHT22;1243;54.298;10.172;2023-05-18T06:56:03;10.10;99.90
2463;DHT22;1243;54.298;10.172;2023-05-18T06:58:29;10.00;99.90
2463;DHT22;1243;54.298;10.172;2023-05-18T07:00:54;10.10;99.90
2463;DHT22;1243;54.298;10.172;2023-05-18T07:03:20;10.20;99.90
2463;DHT22;1243;54.298;10.172;2023-05-18T07:05:46;10.30;99.90
2463;DHT22;1243;54.298;10.172;2023-05-18T07:08:12;10.50;99.90
2463;DHT22;1243;54.298;10.172;2023-05-18T07:10:37;10.60;99.90
2463;DHT22;1243;54.298;10.172;2023-05-18T07:13:03;10.50;99.90
2463;DHT22;1243;54.298;10.172;2023-05-18T07:15:31;10.60;99.90
2463;DHT22;1243;54.298;10.172;2023-05-18T07:17:56;10.70;99.90
2463;DHT22;1243;54.298;10.172;2023-05-18T07:20:22;10.80;99.90
2463;DHT22;1243;54.298;10.172;2023-05-18T07:22:48;10.70;99.90
2463;DHT22;1243;54.298;10.172;2023-05-18T07:25:14;10.80;99.90
2463;DHT22;1243;54.298;10.172;2023-05-18T07:27:39;10.80;99.90
2463;DHT22;1243;54.298;10.172;2023-05-18T07:30:06;10.70;99.90
2463;DHT22;1243;54.298;10.172;2023-05-18T07:32:33;10.50;99.90
2463;DHT22;1243;54.298;10.172;2023-05-18T07:34:58;10.50;99.90
2463;DHT22;1243;54.298;10.172;2023-05-18T07:37:24;10.50;99.90
2463;DHT22;1243;54.298;10.172;2023-05-18T07:39:50;10.50;99.90
2463;DHT22;1243;54.298;10.172;2023-05-18T07:42:17;10.70;99.90
2463;DHT22;1243;54.298;10.172;2023-05-18T07:44:42;10.80;99.90
2463;DHT22;1243;54.298;10.172;2023-05-18T07:47:08;10.60;99.90
2463;DHT22;1243;54.298;10.172;2023-05-18T07:49:34;10.60;99.90
2463;DHT22;1243;54.298;10.172;2023-05-18T07:51:59;10.50;99.90
2463;DHT22;1243;54.298;10.172;2023-05-18T07:54:26;10.40;99.90
2463;DHT22;1243;54.298;10.172;2023-05-18T07:56:52;10.30;99.90
2463;DHT22;1243;54.298;10.172;2023-05-18T07:59:18;10.30;99.90
2463;DHT22;1243;54.298;10.172;2023-05-18T08:01:44;10.20;99.90
2463;DHT22;1243;54.298;10.172;2023-05-18T08:04:10;10.10;99.90
2463;DHT22;1243;54.298;10.172;2023-05-18T08:06:35;10.10;99.90
2463;DHT22;1243;54.298;10.172;2023-05-18T08:09:02;10.00;99.90
2463;DHT22;1243;54.298;10.172;2023-05-18T08:11:28;10.10;99.90
2463;DHT22;1243;54.298;10.172;2023-05-18T08:13:53;10.30;99.90
2463;DHT22;1243;54.298;10.172;2023-05-18T08:16:19;10.40;99.90
2463;DHT22;1243;54.298;10.172;2023-05-18T08:18:45;10.60;99.90
2463;DHT22;1243;54.298;10.172;2023-05-18T08:21:10;10.80;99.90
2463;DHT22;1243;54.298;10.172;2023-05-18T08:23:37;10.90;99.90
2463;DHT22;1243;54.298;10.172;2023-05-18T08:26:03;11.00;99.90
2463;DHT22;1243;54.298;10.172;2023-05-18T08:28:29;11.10;99.90
2463;DHT22;1243;54.298;10.172;2023-05-18T08:30:55;11.30;99.90
2463;DHT22;1243;54.298;10.172;2023-05-18T08:33:21;11.40;99.90
2463;DHT22;1243;54.298;10.172;2023-05-18T08:35:48;11.50;99.90
2463;DHT22;1243;54.298;10.172;2023-05-18T08:38:14;11.50;99.90
2463;DHT22;1243;54.298;10.172;2023-05-18T08:41:04;11.70;99.90
2463;DHT22;1243;54.298;10.172;2023-05-18T08:43:37;11.80;99.90
2463;DHT22;1243;54.298;10.172;2023-05-18T08:46:03;12.00;99.90
2463;DHT22;1243;54.298;10.172;2023-05-18T08:48:31;12.00;99.90
2463;DHT22;1243;54.298;10.172;2023-05-18T08:50:58;12.10;99.90
2463;DHT22;1243;54.298;10.172;2023-05-18T08:53:25;12.40;99.90
2463;DHT22;1243;54.298;10.172;2023-05-18T08:55:53;12.50;99.90
2463;DHT22;1243;54.298;10.172;2023-05-18T08:58:20;12.60;99.90
2463;DHT22;1243;54.298;10.172;2023-05-18T09:00:51;12.80;99.90
2463;DHT22;1243;54.298;10.172;2023-05-18T09:03:18;13.00;99.90
2463;DHT22;1243;54.298;10.172;2023-05-18T09:05:46;13.00;99.90
2463;DHT22;1243;54.298;10.172;2023-05-18T09:08:13;13.10;99.90
2463;DHT22;1243;54.298;10.172;2023-05-18T09:10:39;13.40;99.90
2463;DHT22;1243;54.298;10.172;2023-05-18T09:13:06;13.50;99.90
2463;DHT22;1243;54.298;10.172;2023-05-18T09:15:32;13.60;99.90
2463;DHT22;1243;54.298;10.172;2023-05-18T09:17:59;13.80;99.90
2463;DHT22;1243;54.298;10.172;2023-05-18T09:20:26;13.90;99.90
2463;DHT22;1243;54.298;10.172;2023-05-18T09:22:52;14.00;99.90
2463;DHT22;1243;54.298;10.172;2023-05-18T09:25:18;13.90;99.90
2463;DHT22;1243;54.298;10.172;2023-05-18T09:27:47;13.80;99.90
2463;DHT22;1243;54.298;10.172;2023-05-18T09:30:13;13.90;99.90
2463;DHT22;1243;54.298;10.172;2023-05-18T09:32:40;14.00;99.90
2463;DHT22;1243;54.298;10.172;2023-05-18T09:35:07;14.20;99.90
2463;DHT22;1243;54.298;10.172;2023-05-18T09:37:33;14.30;99.90
2463;DHT22;1243;54.298;10.172;2023-05-18T09:40:00;14.50;99.90
2463;DHT22;1243;54.298;10.172;2023-05-18T09:45:00;15.40;99.90
2463;DHT22;1243;54.298;10.172;2023-05-18T09:47:29;15.80;99.90
2463;DHT22;1243;54.298;10.172;2023-05-18T09:49:57;16.20;99.90
2463;DHT22;1243;54.298;10.172;2023-05-18T09:52:23;16.70;99.90
2463;DHT22;1243;54.298;10.172;2023-05-18T09:54:57;17.10;99.90
2463;DHT22;1243;54.298;10.172;2023-05-18T09:57:24;17.20;99.90
2463;DHT22;1243;54.298;10.172;2023-05-18T09:59:55;17.60;99.90
2463;DHT22;1243;54.298;10.172;2023-05-18T10:02:21;17.50;99.90
2463;DHT22;1243;54.298;10.172;2023-05-18T10:04:50;17.60;99.90
2463;DHT22;1243;54.298;10.172;2023-05-18T10:07:16;17.60;99.90
2463;DHT22;1243;54.298;10.172;2023-05-18T10:09:43;17.80;99.90
2463;DHT22;1243;54.298;10.172;2023-05-18T10:12:14;17.80;99.90
2463;DHT22;1243;54.298;10.172;2023-05-18T10:14:41;17.60;99.90
2463;DHT22;1243;54.298;10.172;2023-05-18T10:17:07;17.70;99.90
2463;DHT22;1243;54.298;10.172;2023-05-18T10:19:35;18.00;99.90
2463;DHT22;1243;54.298;10.172;2023-05-18T10:22:02;18.10;99.90
2463;DHT22;1243;54.298;10.172;2023-05-18T10:24:33;18.20;99.90
2463;DHT22;1243;54.298;10.172;2023-05-18T10:27:01;18.00;99.90
2463;DHT22;1243;54.298;10.172;2023-05-18T10:29:31;18.30;99.90
2463;DHT22;1243;54.298;10.172;2023-05-18T10:31:59;18.40;99.90
2463;DHT22;1243;54.298;10.172;2023-05-18T10:34:28;18.80;99.90
2463;DHT22;1243;54.298;10.172;2023-05-18T10:36:55;19.20;99.90
2463;DHT22;1243;54.298;10.172;2023-05-18T10:39:23;19.10;99.90
2463;DHT22;1243;54.298;10.172;2023-05-18T10:41:50;19.20;99.90
2463;DHT22;1243;54.298;10.172;2023-05-18T10:44:19;19.30;99.90
2463;DHT22;1243;54.298;10.172;2023-05-18T10:46:49;19.30;99.90
2463;DHT22;1243;54.298;10.172;2023-05-18T10:49:16;19.10;99.90
2463;DHT22;1243;54.298;10.172;2023-05-18T10:51:44;18.70;99.90
2463;DHT22;1243;54.298;10.172;2023-05-18T10:54:13;18.70;99.90
2463;DHT22;1243;54.298;10.172;2023-05-18T10:56:46;18.90;99.90
2463;DHT22;1243;54.298;10.172;2023-05-18T10:59:13;19.00;99.90
2463;DHT22;1243;54.298;10.172;2023-05-18T11:01:40;19.10;99.90
2463;DHT22;1243;54.298;10.172;2023-05-18T11:04:07;19.40;99.90
2463;DHT22;1243;54.298;10.172;2023-05-18T11:06:32;19.80;99.90
2463;DHT22;1243;54.298;10.172;2023-05-18T11:09:00;20.20;99.90
2463;DHT22;1243;54.298;10.172;2023-05-18T11:11:27;20.30;99.90
2463;DHT22;1243;54.298;10.172;2023-05-18T11:14:02;20.30;99.90
2463;DHT22;1243;54.298;10.172;2023-05-18T11:16:40;20.80;99.90
2463;DHT22;1243;54.298;10.172;2023-05-18T11:19:08;21.30;99.90
2463;DHT22;1243;54.298;10.172;2023-05-18T11:24:30;22.10;99.90
2463;DHT22;1243;54.298;10.172;2023-05-18T11:27:10;22.30;99.90
2463;DHT22;1243;54.298;10.172;2023-05-18T11:29:42;22.40;99.90
2463;DHT22;1243;54.298;10.172;2023-05-18T11:32:26;22.40;99.90
2463;DHT22;1243;54.298;10.172;2023-05-18T11:34:54;22.20;99.90
2463;DHT22;1243;54.298;10.172;2023-05-18T11:40:11;22.60;99.90
2463;DHT22;1243;54.298;10.172;2023-05-18T11:42:38;22.80;99.90
2463;DHT22;1243;54.298;10.172;2023-05-18T11:45:11;23.00;99.90
2463;DHT22;1243;54.298;10.172;2023-05-18T11:47:38;22.70;99.90
2463;DHT22;1243;54.298;10.172;2023-05-18T11:50:09;22.90;99.90
2463;DHT22;1243;54.298;10.172;2023-05-18T11:52:50;23.20;99.90
2463;DHT22;1243;54.298;10.172;2023-05-18T11:55:18;23.70;99.90
2463;DHT22;1243;54.298;10.172;2023-05-18T11:57:47;23.20;99.90
2463;DHT22;1243;54.298;10.172;2023-05-18T12:00:13;22.70;99.90
2463;DHT22;1243;54.298;10.172;2023-05-18T12:02:44;23.40;99.90
2463;DHT22;1243;54.298;10.172;2023-05-18T12:05:11;23.20;99.90
2463;DHT22;1243;54.298;10.172;2023-05-18T12:07:38;23.30;99.90
2463;DHT22;1243;54.298;10.172;2023-05-18T12:10:11;23.10;99.90
2463;DHT22;1243;54.298;10.172;2023-05-18T12:12:37;23.10;99.90
2463;DHT22;1243;54.298;10.172;2023-05-18T12:15:08;23.00;99.90
2463;DHT22;1243;54.298;10.172;2023-05-18T12:17:45;22.60;99.90
2463;DHT22;1243;54.298;10.172;2023-05-18T12:20:21;22.70;99.90
2463;DHT22;1243;54.298;10.172;2023-05-18T12:22:51;23.20;99.90
2463;DHT22;1243;54.298;10.172;2023-05-18T12:25:18;23.10;99.90
2463;DHT22;1243;54.298;10.172;2023-05-18T12:27:45;23.20;99.90
2463;DHT22;1243;54.298;10.172;2023-05-18T12:32:44;21.50;99.90
2463;DHT22;1243;54.298;10.172;2023-05-18T12:35:10;20.40;99.90
2463;DHT22;1243;54.298;10.172;2023-05-18T12:37:45;20.10;99.90
2463;DHT22;1243;54.298;10.172;2023-05-18T12:40:14;20.30;99.90
2463;DHT22;1243;54.298;10.172;2023-05-18T12:42:53;20.00;99.90
2463;DHT22;1243;54.298;10.172;2023-05-18T12:45:22;19.60;99.90
2463;DHT22;1243;54.298;10.172;2023-05-18T12:47:48;19.70;99.90
2463;DHT22;1243;54.298;10.172;2023-05-18T12:50:18;19.60;99.90
2463;DHT22;1243;54.298;10.172;2023-05-18T12:52:44;19.80;99.90
2463;DHT22;1243;54.298;10.172;2023-05-18T12:55:18;20.00;99.90
2463;DHT22;1243;54.298;10.172;2023-05-18T12:58:09;20.20;99.90
2463;DHT22;1243;54.298;10.172;2023-05-18T13:00:37;19.80;99.90
2463;DHT22;1243;54.298;10.172;2023-05-18T13:03:10;19.40;99.90
2463;DHT22;1243;54.298;10.172;2023-05-18T13:05:37;19.70;99.90
2463;DHT22;1243;54.298;10.172;2023-05-18T13:08:03;19.90;99.90
2463;DHT22;1243;54.298;10.172;2023-05-18T13:10:30;20.20;99.90
2463;DHT22;1243;54.298;10.172;2023-05-18T13:12:59;20.20;99.90
2463;DHT22;1243;54.298;10.172;2023-05-18T13:15:38;19.90;99.90
2463;DHT22;1243;54.298;10.172;2023-05-18T13:18:08;19.50;99.90
2463;DHT22;1243;54.298;10.172;2023-05-18T13:20:40;19.60;99.90
2463;DHT22;1243;54.298;10.172;2023-05-18T13:23:11;19.70;99.90
2463;DHT22;1243;54.298;10.172;2023-05-18T13:25:38;19.40;99.90
2463;DHT22;1243;54.298;10.172;2023-05-18T13:28:05;19.60;99.90
2463;DHT22;1243;54.298;10.172;2023-05-18T13:30:31;19.80;99.90
2463;DHT22;1243;54.298;10.172;2023-05-18T13:32:58;20.10;99.90
2463;DHT22;1243;54.298;10.172;2023-05-18T13:35:24;20.40;99.90
2463;DHT22;1243;54.298;10.172;2023-05-18T13:37:50;20.60;99.90
2463;DHT22;1243;54.298;10.172;2023-05-18T13:40:17;20.80;99.90
2463;DHT22;1243;54.298;10.172;2023-05-18T13:42:44;21.20;99.90
2463;DHT22;1243;54.298;10.172;2023-05-18T13:45:11;21.70;99.90
2463;DHT22;1243;54.298;10.172;2023-05-18T13:47:40;21.80;99.90
2463;DHT22;1243;54.298;10.172;2023-05-18T13:50:07;21.80;99.90
2463;DHT22;1243;54.298;10.172;2023-05-18T13:52:34;22.20;99.90
2463;DHT22;1243;54.298;10.172;2023-05-18T13:55:05;22.30;99.90
2463;DHT22;1243;54.298;10.172;2023-05-18T13:57:31;21.90;99.90
2463;DHT22;1243;54.298;10.172;2023-05-18T14:00:00;21.50;99.90
2463;DHT22;1243;54.298;10.172;2023-05-18T14:02:29;22.00;99.90
2463;DHT22;1243;54.298;10.172;2023-05-18T14:04:55;23.00;99.90
2463;DHT22;1243;54.298;10.172;2023-05-18T14:07:21;24.20;99.90
2463;DHT22;1243;54.298;10.172;2023-05-18T14:09:48;25.40;99.90
2463;DHT22;1243;54.298;10.172;2023-05-18T14:12:14;24.00;99.90
2463;DHT22;1243;54.298;10.172;2023-05-18T14:14:40;22.80;99.90
2463;DHT22;1243;54.298;10.172;2023-05-18T14:17:08;22.80;99.90
2463;DHT22;1243;54.298;10.172;2023-05-18T14:19:34;22.80;99.90
2463;DHT22;1243;54.298;10.172;2023-05-18T14:22:00;22.70;99.90
2463;DHT22;1243;54.298;10.172;2023-05-18T14:24:26;22.10;99.90
2463;DHT22;1243;54.298;10.172;2023-05-18T14:26:52;21.50;99.90
2463;DHT22;1243;54.298;10.172;2023-05-18T14:29:18;21.60;99.90
2463;DHT22;1243;54.298;10.172;2023-05-18T14:31:45;21.00;99.90
2463;DHT22;1243;54.298;10.172;2023-05-18T14:34:11;20.90;99.90
2463;DHT22;1243;54.298;10.172;2023-05-18T14:36:36;20.80;99.90
2463;DHT22;1243;54.298;10.172;2023-05-18T14:39:02;21.40;99.90
2463;DHT22;1243;54.298;10.172;2023-05-18T14:41:29;21.80;99.90
2463;DHT22;1243;54.298;10.172;2023-05-18T14:43:55;22.70;99.90
2463;DHT22;1243;54.298;10.172;2023-05-18T14:46:21;23.20;99.90
2463;DHT22;1243;54.298;10.172;2023-05-18T14:48:46;23.80;99.90
2463;DHT22;1243;54.298;10.172;2023-05-18T14:51:12;23.50;99.90
2463;DHT22;1243;54.298;10.172;2023-05-18T14:53:38;23.60;99.90
2463;DHT22;1243;54.298;10.172;2023-05-18T14:56:04;23.50;99.90
2463;DHT22;1243;54.298;10.172;2023-05-18T14:58:33;23.40;99.90
2463;DHT22;1243;54.298;10.172;2023-05-18T15:00:59;23.20;99.90
2463;DHT22;1243;54.298;10.172;2023-05-18T15:03:24;23.50;99.90
2463;DHT22;1243;54.298;10.172;2023-05-18T15:05:50;24.30;99.90
2463;DHT22;1243;54.298;10.172;2023-05-18T15:08:16;24.40;99.90
2463;DHT22;1243;54.298;10.172;2023-05-18T15:10:42;24.20;99.90
2463;DHT22;1243;54.298;10.172;2023-05-18T15:13:08;24.00;99.90
2463;DHT22;1243;54.298;10.172;2023-05-18T15:15:33;23.90;99.90
2463;DHT22;1243;54.298;10.172;2023-05-18T15:17:59;22.20;99.90
2463;DHT22;1243;54.298;10.172;2023-05-18T15:20:25;21.20;99.90
2463;DHT22;1243;54.298;10.172;2023-05-18T15:22:51;20.50;99.90
2463;DHT22;1243;54.298;10.172;2023-05-18T15:25:17;20.30;99.90
2463;DHT22;1243;54.298;10.172;2023-05-18T15:27:43;19.90;99.90
2463;DHT22;1243;54.298;10.172;2023-05-18T15:30:09;19.80;99.90
2463;DHT22;1243;54.298;10.172;2023-05-18T15:32:38;19.60;99.90
2463;DHT22;1243;54.298;10.172;2023-05-18T15:35:04;18.90;99.90
2463;DHT22;1243;54.298;10.172;2023-05-18T15:37:31;18.70;99.90
2463;DHT22;1243;54.298;10.172;2023-05-18T15:39:57;18.40;99.90
2463;DHT22;1243;54.298;10.172;2023-05-18T15:42:23;18.50;99.90
2463;DHT22;1243;54.298;10.172;2023-05-18T15:44:49;18.30;99.90
2463;DHT22;1243;54.298;10.172;2023-05-18T15:47:15;18.20;99.90
2463;DHT22;1243;54.298;10.172;2023-05-18T15:49:40;18.10;99.90
2463;DHT22;1243;54.298;10.172;2023-05-18T15:52:07;17.90;99.90
2463;DHT22;1243;54.298;10.172;2023-05-18T15:54:33;17.80;99.90
2463;DHT22;1243;54.298;10.172;2023-05-18T15:56:59;17.80;99.90
2463;DHT22;1243;54.298;10.172;2023-05-18T15:59:25;18.00;99.90
2463;DHT22;1243;54.298;10.172;2023-05-18T16:01:51;18.10;99.90
2463;DHT22;1243;54.298;10.172;2023-05-18T16:04:17;18.50;99.90
2463;DHT22;1243;54.298;10.172;2023-05-18T16:06:42;18.40;99.90
2463;DHT22;1243;54.298;10.172;2023-05-18T16:09:08;18.50;99.90
2463;DHT22;1243;54.298;10.172;2023-05-18T16:11:34;18.30;99.90
2463;DHT22;1243;54.298;10.172;2023-05-18T16:14:03;18.20;99.90
2463;DHT22;1243;54.298;10.172;2023-05-18T16:16:29;18.20;99.90
2463;DHT22;1243;54.298;10.172;2023-05-18T16:18:55;17.40;99.90
2463;DHT22;1243;54.298;10.172;2023-05-18T16:21:21;16.50;99.90